createdAt,value
2019-06-20T00:00:52.343Z,5.53
2019-06-20T00:03:25.442Z,5.27
2019-06-20T00:05:56.402Z,6.07
2019-06-20T00:08:29.467Z,6.57
2019-06-20T00:11:00.114Z,6.60
2019-06-20T00:13:32.535Z,10.27
2019-06-20T00:16:03.953Z,9.77
2019-06-20T00:18:35.882Z,4.70
2019-06-20T00:21:08.159Z,9.63
2019-06-20T00:23:39.772Z,6.47
2019-06-20T00:26:12.182Z,6.20
2019-06-20T00:28:43.777Z,8.60
2019-06-20T00:31:16.329Z,11.47
2019-06-20T00:33:47.779Z,6.63
2019-06-20T00:36:19.441Z,8.97
2019-06-20T00:38:52.168Z,4.97
2019-06-20T00:41:23.245Z,4.93
2019-06-20T00:43:55.483Z,5.20
2019-06-20T00:46:25.675Z,8.60
2019-06-20T00:48:58.805Z,8.33
2019-06-20T00:51:30.053Z,6.80
2019-06-20T00:54:01.529Z,4.77
2019-06-20T00:56:32.686Z,12.20
2019-06-20T00:59:05.287Z,6.37
2019-06-20T01:01:36.691Z,7.63
2019-06-20T01:04:07.813Z,8.87
2019-06-20T01:06:38.584Z,7.37
2019-06-20T01:09:10.458Z,5.07
2019-06-20T01:11:39.831Z,5.77
2019-06-20T01:14:14.186Z,6.60
2019-06-20T01:16:45.785Z,10.53
2019-06-20T01:19:17.385Z,9.90
2019-06-20T01:21:50.754Z,5.93
2019-06-20T01:24:25.030Z,5.43
2019-06-20T01:26:56.264Z,4.83
2019-06-20T01:29:29.819Z,6.77
2019-06-20T01:32:00.963Z,7.20
2019-06-20T01:34:34.412Z,5.17
2019-06-20T01:37:06.998Z,7.23
2019-06-20T01:39:39.948Z,4.20
2019-06-20T01:42:12.378Z,4.00
2019-06-20T01:44:44.581Z,4.87
2019-06-20T01:47:16.105Z,5.80
2019-06-20T01:49:48.306Z,4.53
2019-06-20T01:52:17.808Z,4.33
2019-06-20T01:54:48.446Z,5.67
2019-06-20T01:57:20.618Z,5.43
2019-06-20T01:59:52.045Z,5.63
2019-06-20T02:02:22.802Z,6.70
2019-06-20T02:04:53.576Z,4.87
2019-06-20T02:07:28.122Z,5.27
2019-06-20T02:09:58.803Z,7.70
2019-06-20T02:12:31.013Z,5.07
2019-06-20T02:15:04.286Z,6.60
2019-06-20T02:17:37.085Z,6.27
2019-06-20T02:20:08.691Z,4.73
2019-06-20T02:22:39.991Z,6.17
2019-06-20T02:25:13.777Z,3.97
2019-06-20T02:27:48.215Z,3.77
2019-06-20T02:30:20.293Z,6.37
2019-06-20T02:32:52.592Z,4.60
2019-06-20T02:35:26.891Z,5.63
2019-06-20T02:37:59.501Z,4.97
2019-06-20T02:40:31.144Z,5.23
2019-06-20T02:43:01.852Z,7.13
2019-06-20T02:45:39.085Z,8.30
2019-06-20T02:48:10.057Z,10.33
2019-06-20T02:50:42.088Z,4.80
2019-06-20T02:53:14.385Z,8.57
2019-06-20T02:55:45.997Z,6.93
2019-06-20T02:58:17.142Z,5.00
2019-06-20T03:00:59.183Z,4.93
2019-06-20T03:03:31.494Z,11.17
2019-06-20T03:06:01.707Z,14.43
2019-06-20T03:08:34.217Z,14.93
2019-06-20T03:11:05.849Z,27.03
2019-06-20T03:13:35.912Z,88.90
2019-06-20T03:16:07.579Z,43.83
2019-06-20T03:18:40.034Z,91.60
2019-06-20T03:21:12.548Z,44.93
2019-06-20T03:23:42.768Z,33.50
2019-06-20T03:26:13.833Z,24.53
2019-06-20T03:28:43.896Z,23.70
2019-06-20T03:31:14.349Z,20.80
2019-06-20T03:33:44.678Z,23.07
2019-06-20T03:36:15.264Z,19.10
2019-06-20T03:38:46.185Z,19.40
2019-06-20T03:41:17.712Z,22.83
2019-06-20T03:43:48.300Z,19.07
2019-06-20T03:46:18.406Z,20.17
2019-06-20T03:48:51.431Z,18.70
2019-06-20T03:51:22.100Z,21.77
2019-06-20T03:53:55.466Z,20.87
2019-06-20T03:56:26.851Z,20.23
2019-06-20T03:59:00.338Z,22.97
2019-06-20T04:01:31.406Z,19.10
2019-06-20T04:04:02.106Z,19.20
2019-06-20T04:06:33.175Z,16.20
2019-06-20T04:09:06.868Z,20.47
2019-06-20T04:11:38.568Z,18.27
2019-06-20T04:14:09.668Z,19.10
2019-06-20T04:16:42.290Z,20.87
2019-06-20T04:19:14.272Z,18.63
2019-06-20T04:21:46.732Z,18.83
2019-06-20T04:24:20.094Z,17.00
2019-06-20T04:26:52.479Z,15.70
2019-06-20T04:29:24.971Z,17.60
2019-06-20T04:31:56.171Z,17.93
2019-06-20T04:34:27.065Z,18.03
2019-06-20T04:36:58.784Z,14.37
2019-06-20T04:39:31.613Z,14.60
2019-06-20T04:42:01.297Z,13.10
2019-06-20T04:44:33.432Z,14.50
2019-06-20T04:47:10.598Z,11.87
2019-06-20T04:49:40.758Z,10.40
2019-06-20T04:52:14.719Z,12.20
2019-06-20T04:54:44.218Z,9.70
2019-06-20T04:57:16.334Z,16.03
2019-06-20T04:59:49.490Z,8.53
2019-06-20T05:02:36.524Z,9.07
2019-06-20T05:05:11.369Z,11.00
2019-06-20T05:07:44.611Z,9.87
2019-06-20T05:10:15.772Z,8.13
2019-06-20T05:12:48.560Z,8.63
2019-06-20T05:15:21.259Z,7.83
2019-06-20T05:17:53.082Z,7.60
2019-06-20T05:20:24.894Z,7.50
2019-06-20T05:22:56.986Z,7.50
2019-06-20T05:25:28.030Z,11.10
2019-06-20T05:27:58.540Z,7.57
2019-06-20T05:30:29.296Z,8.13
2019-06-20T05:33:00.612Z,8.23
2019-06-20T05:35:33.062Z,7.37
2019-06-20T05:38:05.506Z,6.50
2019-06-20T05:40:38.574Z,7.83
2019-06-20T05:43:09.632Z,6.03
2019-06-20T05:45:46.139Z,7.07
2019-06-20T05:48:19.774Z,8.63
2019-06-20T05:50:50.871Z,6.70
2019-06-20T05:53:24.911Z,5.40
2019-06-20T05:55:57.335Z,7.10
2019-06-20T05:58:29.245Z,5.63
2019-06-20T06:01:03.718Z,7.70
2019-06-20T06:03:36.322Z,9.57
2019-06-20T06:06:10.868Z,7.93
2019-06-20T06:08:45.330Z,8.30
2019-06-20T06:11:18.618Z,7.47
2019-06-20T06:13:51.009Z,6.20
2019-06-20T06:16:27.228Z,7.23
2019-06-20T06:19:00.087Z,8.77
2019-06-20T06:21:32.703Z,10.43
2019-06-20T06:24:06.460Z,6.37
2019-06-20T06:26:40.300Z,12.03
2019-06-20T06:29:16.413Z,13.67
2019-06-20T06:31:49.981Z,12.63
2019-06-20T06:34:23.957Z,11.50
2019-06-20T06:36:55.635Z,9.70
2019-06-20T06:39:27.781Z,16.43
2019-06-20T06:42:01.861Z,11.93
2019-06-20T06:44:36.729Z,14.50
2019-06-20T06:47:10.870Z,13.97
2019-06-20T06:49:45.457Z,9.87
2019-06-20T06:52:17.175Z,16.43
2019-06-20T06:54:50.198Z,18.70
2019-06-20T06:57:24.211Z,15.33
2019-06-20T06:59:57.415Z,10.63
2019-06-20T07:02:30.292Z,17.33
2019-06-20T07:05:03.874Z,13.53
2019-06-20T07:07:36.401Z,15.73
2019-06-20T07:10:12.534Z,15.57
2019-06-20T07:12:45.117Z,16.67
2019-06-20T07:15:18.819Z,10.37
2019-06-20T07:17:51.511Z,9.03
2019-06-20T07:20:26.182Z,14.43
2019-06-20T07:22:59.617Z,12.43
2019-06-20T07:25:32.816Z,15.20
2019-06-20T07:28:05.213Z,9.37
2019-06-20T07:30:38.214Z,12.60
2019-06-20T07:33:09.932Z,13.63
2019-06-20T07:35:42.729Z,13.70
2019-06-20T07:38:14.812Z,9.77
2019-06-20T07:40:48.209Z,12.90
2019-06-20T07:43:20.190Z,19.20
2019-06-20T07:46:02.441Z,17.20
2019-06-20T07:48:32.052Z,18.30
2019-06-20T07:51:04.504Z,19.73
2019-06-20T07:53:36.450Z,12.53
2019-06-20T07:56:10.182Z,10.87
2019-06-20T07:58:43.351Z,13.57
2019-06-20T08:01:16.015Z,13.03
2019-06-20T08:03:48.247Z,16.80
2019-06-20T08:06:21.883Z,24.17
2019-06-20T08:08:52.682Z,9.07
2019-06-20T08:11:24.464Z,18.30
2019-06-20T08:13:58.303Z,11.33
2019-06-20T08:16:30.542Z,18.70
2019-06-20T08:19:02.350Z,17.47
2019-06-20T08:21:35.479Z,15.80
2019-06-20T08:24:08.347Z,13.20
2019-06-20T08:26:40.865Z,13.10
2019-06-20T08:29:21.142Z,15.50
2019-06-20T08:31:50.389Z,13.37
2019-06-20T08:34:22.956Z,10.63
2019-06-20T08:36:59.367Z,11.07
2019-06-20T08:39:31.567Z,13.97
2019-06-20T08:42:06.320Z,14.33
2019-06-20T08:44:39.723Z,10.53
2019-06-20T08:47:13.139Z,13.20
2019-06-20T08:49:47.472Z,14.23
2019-06-20T08:52:21.919Z,13.67
2019-06-20T08:54:56.276Z,13.07
2019-06-20T08:57:30.081Z,9.13
2019-06-20T09:02:33.787Z,10.23
2019-06-20T09:05:07.354Z,10.10
2019-06-20T09:07:41.767Z,11.83
2019-06-20T09:10:15.569Z,10.50
2019-06-20T09:12:47.453Z,8.73
2019-06-20T09:15:20.018Z,7.33
2019-06-20T09:17:55.141Z,6.67
2019-06-20T09:20:28.284Z,6.10
2019-06-20T09:23:01.042Z,7.37
2019-06-20T09:25:33.351Z,8.00
2019-06-20T09:28:05.479Z,5.83
2019-06-20T09:30:40.566Z,4.97
2019-06-20T09:33:13.382Z,5.13
2019-06-20T09:35:46.685Z,3.27
2019-06-20T09:38:19.383Z,4.33
2019-06-20T09:40:53.009Z,3.10
2019-06-20T09:43:27.864Z,3.30
2019-06-20T09:45:59.762Z,3.07
2019-06-20T09:48:33.634Z,2.30
2019-06-20T09:51:07.014Z,2.67
2019-06-20T09:53:40.942Z,2.10
2019-06-20T09:56:13.589Z,1.80
2019-06-20T09:58:46.903Z,2.90
2019-06-20T10:01:22.439Z,1.30
2019-06-20T10:03:56.718Z,3.17
2019-06-20T10:06:31.012Z,2.17
2019-06-20T10:09:01.633Z,1.93
2019-06-20T10:11:33.592Z,2.63
2019-06-20T10:14:06.335Z,3.20
2019-06-20T10:16:45.843Z,1.73
2019-06-20T10:19:13.540Z,1.33
2019-06-20T10:21:46.771Z,2.93
2019-06-20T10:24:20.845Z,1.83
2019-06-20T10:26:53.535Z,2.37
2019-06-20T10:29:25.597Z,2.03
2019-06-20T10:31:57.271Z,2.30
2019-06-20T10:34:31.582Z,1.30
2019-06-20T10:37:04.449Z,1.60
2019-06-20T10:39:36.232Z,1.60
2019-06-20T10:42:08.265Z,3.07
2019-06-20T10:44:38.621Z,2.30
2019-06-20T10:47:11.158Z,1.90
2019-06-20T10:49:45.052Z,2.80
2019-06-20T10:52:18.320Z,3.37
2019-06-20T10:54:49.671Z,3.37
2019-06-20T10:57:21.105Z,2.83
2019-06-20T10:59:52.840Z,3.20
2019-06-20T11:02:24.464Z,4.37
2019-06-20T11:04:56.666Z,4.23
2019-06-20T11:07:27.943Z,3.37
2019-06-20T11:09:59.478Z,2.67
2019-06-20T11:12:42.614Z,3.07
2019-06-20T11:15:04.067Z,1.90
2019-06-20T11:17:35.673Z,3.43
2019-06-20T11:20:07.091Z,4.20
2019-06-20T11:22:39.815Z,2.27
2019-06-20T11:25:13.689Z,4.33
2019-06-20T11:27:47.111Z,2.27
2019-06-20T11:30:18.869Z,3.13
2019-06-20T11:32:51.278Z,2.30
2019-06-20T11:35:22.874Z,3.03
2019-06-20T11:37:54.181Z,1.50
2019-06-20T11:40:24.650Z,3.33
2019-06-20T11:42:57.071Z,3.03
2019-06-20T11:45:28.480Z,4.23
2019-06-20T11:48:00.206Z,1.87
2019-06-20T11:50:34.431Z,3.73
2019-06-20T11:53:08.512Z,3.87
2019-06-20T11:55:40.623Z,4.63
2019-06-20T11:58:13.941Z,2.33
2019-06-20T12:01:02.211Z,3.60
2019-06-20T12:03:20.236Z,3.20
2019-06-20T12:05:51.339Z,2.57
2019-06-20T12:08:22.998Z,4.17
2019-06-20T12:10:56.881Z,2.87
2019-06-20T12:13:28.808Z,3.20
2019-06-20T12:16:01.272Z,5.07
2019-06-20T12:18:35.273Z,2.77
2019-06-20T12:21:09.410Z,3.67
2019-06-20T12:23:42.540Z,4.47
2019-06-20T12:26:15.994Z,3.93
2019-06-20T12:28:49.977Z,2.63
2019-06-20T12:31:24.807Z,3.57
2019-06-20T12:33:59.151Z,4.40
2019-06-20T12:36:34.199Z,3.67
2019-06-20T12:39:09.330Z,3.17
2019-06-20T12:41:43.365Z,5.73
2019-06-20T12:44:16.075Z,3.30
2019-06-20T12:46:49.102Z,3.63
2019-06-20T12:49:23.991Z,3.07
2019-06-20T12:51:54.645Z,4.33
2019-06-20T12:54:30.090Z,3.17
2019-06-20T12:57:01.416Z,3.03
2019-06-20T12:59:32.846Z,3.22
2019-06-20T13:02:05.494Z,4.45
2019-06-20T13:04:39.988Z,4.27
2019-06-20T13:07:12.130Z,3.07
2019-06-20T13:09:46.277Z,3.70
2019-06-20T13:12:18.838Z,3.27
2019-06-20T13:14:49.639Z,3.08
2019-06-20T13:17:23.380Z,2.20
2019-06-20T13:21:05.307Z,2.80
2019-06-20T13:23:34.816Z,3.80
2019-06-20T13:26:06.025Z,3.65
2019-06-20T13:28:51.039Z,3.62
2019-06-20T13:31:09.118Z,6.08
2019-06-20T13:33:39.616Z,2.42
2019-06-20T13:36:09.387Z,2.30
2019-06-20T13:38:39.922Z,2.90
2019-06-20T13:41:09.379Z,2.80
2019-06-20T13:43:38.536Z,2.30
2019-06-20T13:46:08.162Z,2.37
2019-06-20T13:48:37.185Z,3.93
2019-06-20T13:51:06.318Z,5.00
2019-06-20T13:53:35.407Z,3.60
2019-06-20T13:56:04.557Z,4.20
2019-06-20T13:58:33.637Z,5.90
2019-06-20T14:01:02.720Z,3.10
2019-06-20T14:03:31.900Z,3.50
2019-06-20T14:06:01.098Z,5.23
2019-06-20T14:08:30.269Z,2.73
2019-06-20T14:10:59.467Z,4.00
2019-06-20T14:13:28.544Z,3.60
2019-06-20T14:15:57.608Z,5.10
2019-06-20T14:18:26.696Z,3.37
2019-06-20T14:20:55.945Z,3.93
2019-06-20T14:23:25.093Z,5.40
2019-06-20T14:25:54.280Z,3.50
2019-06-20T14:28:23.627Z,6.73
2019-06-20T14:30:52.786Z,3.07
2019-06-20T14:33:22.197Z,4.63
2019-06-20T14:35:51.300Z,4.63
2019-06-20T14:38:20.427Z,5.73
2019-06-20T14:40:49.960Z,4.73
2019-06-20T14:43:19.108Z,6.20
2019-06-20T14:45:48.688Z,4.87
2019-06-20T14:48:17.920Z,4.33
2019-06-20T14:50:47.796Z,5.47
2019-06-20T14:53:18.017Z,5.83
2019-06-20T14:55:47.717Z,6.00
2019-06-20T14:58:17.078Z,3.73
2019-06-20T15:00:46.989Z,6.83
2019-06-20T15:03:17.245Z,4.40
2019-06-20T15:05:47.101Z,6.00
2019-06-20T15:08:17.517Z,6.57
2019-06-20T15:10:48.061Z,5.00
2019-06-20T15:13:17.175Z,6.07
2019-06-20T15:15:47.730Z,6.13
2019-06-20T15:18:17.122Z,3.83
2019-06-20T15:20:46.928Z,6.37
2019-06-20T15:23:16.919Z,4.40
2019-06-20T15:25:47.076Z,6.10
2019-06-20T15:28:16.832Z,7.30
2019-06-20T15:30:47.105Z,5.80
2019-06-20T15:33:16.536Z,5.00
2019-06-20T15:35:47.430Z,6.63
2019-06-20T15:38:16.550Z,3.83
2019-06-20T15:40:47.935Z,7.50
2019-06-20T15:43:16.559Z,7.87
2019-06-20T15:45:45.671Z,13.63
2019-06-20T15:48:15.132Z,9.37
2019-06-20T15:50:44.334Z,8.03
2019-06-20T15:53:13.397Z,7.67
2019-06-20T15:55:42.700Z,7.93
2019-06-20T15:58:12.052Z,8.50
2019-06-20T16:00:41.260Z,6.10
2019-06-20T16:03:14.219Z,8.67
2019-06-20T16:05:41.283Z,5.37
2019-06-20T16:08:10.442Z,6.53
2019-06-20T16:10:39.773Z,7.83
2019-06-20T16:13:09.083Z,5.47
2019-06-20T16:15:38.174Z,8.97
2019-06-20T16:18:08.812Z,4.43
2019-06-20T16:20:37.930Z,4.57
2019-06-20T16:23:07.068Z,4.97
2019-06-20T16:25:36.174Z,5.00
2019-06-20T16:28:05.253Z,4.87
2019-06-20T16:30:34.559Z,4.63
2019-06-20T16:33:03.938Z,5.20
2019-06-20T16:35:33.078Z,3.70
2019-06-20T16:38:02.185Z,4.83
2019-06-20T16:40:46.210Z,5.70
2019-06-20T16:43:15.527Z,4.27
2019-06-20T16:45:44.778Z,3.40
2019-06-20T16:48:13.952Z,5.40
2019-06-20T16:50:43.040Z,3.20
2019-06-20T16:53:12.157Z,3.63
2019-06-20T16:55:41.225Z,3.07
2019-06-20T16:58:10.366Z,3.60
2019-06-20T17:00:39.456Z,2.77
2019-06-20T17:03:08.570Z,6.30
2019-06-20T17:05:39.782Z,2.77
2019-06-20T17:08:09.090Z,1.97
2019-06-20T17:10:38.160Z,5.57
2019-06-20T17:13:07.240Z,2.30
2019-06-20T17:15:37.319Z,2.97
2019-06-20T17:18:06.619Z,3.07
2019-06-20T17:20:35.776Z,4.23
2019-06-20T17:23:05.106Z,3.87
2019-06-20T17:25:34.221Z,4.33
2019-06-20T17:28:03.689Z,5.77
2019-06-20T17:30:32.972Z,4.33
2019-06-20T17:33:02.063Z,3.07
2019-06-20T17:35:31.144Z,4.07
2019-06-20T17:38:00.308Z,4.50
2019-06-20T17:40:29.536Z,4.37
2019-06-20T17:42:58.624Z,8.20
2019-06-20T17:45:28.947Z,5.23
2019-06-20T17:47:58.142Z,4.67
2019-06-20T17:50:27.396Z,5.20
2019-06-20T17:52:56.549Z,7.57
2019-06-20T17:55:25.648Z,4.70
2019-06-20T17:57:54.739Z,6.17
2019-06-20T18:00:24.867Z,5.27
2019-06-20T18:02:53.964Z,5.13
2019-06-20T18:05:23.019Z,8.47
2019-06-20T18:07:52.162Z,5.03
2019-06-20T18:10:23.207Z,6.23
2019-06-20T18:12:52.305Z,3.63
2019-06-20T18:15:23.941Z,4.17
2019-06-20T18:17:53.014Z,5.30
2019-06-20T18:20:23.465Z,4.20
2019-06-20T18:22:52.613Z,3.30
2019-06-20T18:25:21.841Z,4.07
2019-06-20T18:27:50.906Z,6.13
2019-06-20T18:30:24.567Z,3.70
2019-06-20T18:32:53.658Z,5.40
2019-06-20T18:35:22.770Z,4.43
2019-06-20T18:37:51.878Z,5.83
2019-06-20T18:40:21.031Z,4.97
2019-06-20T18:42:50.075Z,4.67
2019-06-20T18:45:19.404Z,5.77
2019-06-20T18:47:48.703Z,8.00
2019-06-20T18:50:17.915Z,3.97
2019-06-20T18:52:52.300Z,6.50
2019-06-20T18:55:21.268Z,6.00
2019-06-20T18:57:50.386Z,6.30
2019-06-20T19:00:33.585Z,6.67
2019-06-20T19:02:50.728Z,3.80
2019-06-20T19:05:19.824Z,7.93
2019-06-20T19:07:49.288Z,4.40
2019-06-20T19:10:22.784Z,5.87
2019-06-20T19:12:51.949Z,7.10
2019-06-20T19:15:22.684Z,5.43
2019-06-20T19:17:51.754Z,5.13
2019-06-20T19:20:21.623Z,5.70
2019-06-20T19:22:50.680Z,6.83
2019-06-20T19:25:19.785Z,5.83
2019-06-20T19:27:48.856Z,4.73
2019-06-20T19:30:18.367Z,5.87
2019-06-20T19:32:47.566Z,5.50
2019-06-20T19:35:17.875Z,3.73
2019-06-20T19:37:46.898Z,3.63
2019-06-20T19:40:17.549Z,5.37
2019-06-20T19:42:46.719Z,3.40
2019-06-20T19:45:16.779Z,6.97
2019-06-20T19:47:45.870Z,7.60
2019-06-20T19:50:15.004Z,5.23
2019-06-20T19:52:44.103Z,7.73
2019-06-20T19:55:13.538Z,8.33
2019-06-20T19:57:42.634Z,7.83
2019-06-20T20:00:12.765Z,5.83
2019-06-20T20:02:43.695Z,9.73
2019-06-20T20:05:19.197Z,6.53
2019-06-20T20:07:43.785Z,5.40
2019-06-20T20:10:14.503Z,6.77
2019-06-20T20:12:43.665Z,6.43
2019-06-20T20:15:13.476Z,3.43
2019-06-20T20:17:42.590Z,7.03
2019-06-20T20:20:12.288Z,5.67
2019-06-20T20:22:41.527Z,6.30
2019-06-20T20:25:11.031Z,5.73
2019-06-20T20:27:40.119Z,3.30
2019-06-20T20:30:10.084Z,4.77
2019-06-20T20:32:39.186Z,4.43
2019-06-20T20:35:08.455Z,4.53
2019-06-20T20:37:37.511Z,3.57
2019-06-20T20:40:07.118Z,5.40
2019-06-20T20:42:36.198Z,4.03
2019-06-20T20:45:05.678Z,3.27
2019-06-20T20:47:34.822Z,3.70
2019-06-20T20:50:04.466Z,4.37
2019-06-20T20:52:33.589Z,5.63
2019-06-20T20:55:02.766Z,3.60
2019-06-20T20:57:31.922Z,2.63
2019-06-20T21:00:01.842Z,3.70
2019-06-20T21:02:31.017Z,2.83
2019-06-20T21:05:00.104Z,4.23
2019-06-20T21:07:29.213Z,3.57
2019-06-20T21:09:58.238Z,5.03
2019-06-20T21:12:27.450Z,3.37
2019-06-20T21:14:56.562Z,4.03
2019-06-20T21:17:25.963Z,2.13
2019-06-20T21:19:55.087Z,2.87
2019-06-20T21:22:24.450Z,3.07
2019-06-20T21:24:53.474Z,2.37
2019-06-20T21:27:22.548Z,2.70
2019-06-20T21:30:00.667Z,1.63
2019-06-20T21:32:29.832Z,1.97
2019-06-20T21:35:00.857Z,3.17
2019-06-20T21:37:32.154Z,2.90
2019-06-20T21:40:01.413Z,4.10
2019-06-20T21:42:30.645Z,2.70
2019-06-20T21:44:59.688Z,3.10
2019-06-20T21:47:28.784Z,3.33
2019-06-20T21:49:58.031Z,3.07
2019-06-20T21:52:27.232Z,3.37
2019-06-20T21:54:56.324Z,2.63
2019-06-20T21:57:25.403Z,2.90
2019-06-20T21:59:56.432Z,2.63
2019-06-20T22:02:25.631Z,3.30
2019-06-20T22:04:55.009Z,2.60
2019-06-20T22:07:24.447Z,3.67
2019-06-20T22:09:53.517Z,3.67
2019-06-20T22:12:22.590Z,3.23
2019-06-20T22:14:51.671Z,2.90
2019-06-20T22:17:20.783Z,2.37
2019-06-20T22:19:50.005Z,1.83
2019-06-20T22:22:19.115Z,6.37
2019-06-20T22:24:48.242Z,2.70
2019-06-20T22:27:17.398Z,3.67
2019-06-20T22:29:46.500Z,2.20
2019-06-20T22:32:15.656Z,1.87
2019-06-20T22:34:44.736Z,2.83
2019-06-20T22:37:13.865Z,2.77
2019-06-20T22:39:43.047Z,3.80
2019-06-20T22:42:12.110Z,1.40
2019-06-20T22:44:41.201Z,3.70
2019-06-20T22:47:10.333Z,2.93
2019-06-20T22:49:44.024Z,4.03
2019-06-20T22:52:13.237Z,4.73
2019-06-20T22:54:42.405Z,3.33
2019-06-20T22:57:11.470Z,3.33
2019-06-20T22:59:40.572Z,6.00
2019-06-20T23:02:09.648Z,2.73
2019-06-20T23:04:38.822Z,4.80
2019-06-20T23:07:07.895Z,2.60
2019-06-20T23:09:36.989Z,2.43
2019-06-20T23:12:06.070Z,3.00
2019-06-20T23:14:35.151Z,3.40
2019-06-20T23:17:04.231Z,1.93
2019-06-20T23:19:33.312Z,3.67
2019-06-20T23:22:02.752Z,2.63
2019-06-20T23:24:31.888Z,4.10
2019-06-20T23:27:01.032Z,4.57
2019-06-20T23:29:30.222Z,4.30
2019-06-20T23:31:59.330Z,3.93
2019-06-20T23:34:28.484Z,4.53
2019-06-20T23:37:11.729Z,2.60
2019-06-20T23:39:28.607Z,3.30
2019-06-20T23:41:57.869Z,3.73
2019-06-20T23:44:27.033Z,3.13
2019-06-20T23:46:56.114Z,2.30
2019-06-20T23:49:25.200Z,3.83
2019-06-20T23:51:59.386Z,3.93
2019-06-20T23:54:28.502Z,4.83
2019-06-20T23:56:57.600Z,2.70
2019-06-20T23:59:26.802Z,4.63
